Rea, Missouri
Current Conditions -  °F | °C
As of 4:53 PM on Tuesday 27 Jan 2015 (Local Time) from KSTJ Reporting Station
Clear Clear  
Wind Chill: 53°   Ceiling: Unl
Heat Index: 53°   Visibility: 10mi
Dew Point: 30°   Wind: 12mph
Humidity: 41%   Direction: 130°SE
Pressure: 30.07"   Gusts: NA
Location:  40.06°N, 94.76°W
Report Text: KSTJ 272253Z AUTO 13010KT 10SM CLR 12/M01 A3007 RMK AO2 SLP187 T01171011
Loading
Personal Weather Stations






























Interactive Weather Map New forecast layout! Learn more

10-Day Weather Forecast

Advertisements
Track Severe Weather on mobile